Friday, November 21, 2014
16:28 UTC
  |  Log In   |  Register Free
Airport Search:

Owosso Community Airport
(KRNP)

Owosso Community Airport Diagram
No Airport Diagram Available

FAA data valid effective November 13, 2014 - January 08, 2015 (unless otherwise noted).

 
 
 
 
 
 
 
 
 
 
 
 
 
 

Current Aviation Weather for Owosso Community Airport (KRNP)

The most recent METAR observation for KRNP was updated at: 1620
METAR Summary (Translated METAR)
KRNP
211554Z AUTO 24005KT 10SM CLR M06/M11 A3044 RMK AO2 T10601115
K4M4
140000Z VRB05KT 25SM SKC 16/04
(13.4 nm NW from KRNP)
KFNT
211553Z 26007KT 10SM CLR M07/M12 A3045 RMK AO2 SLP325 T10671117
(17.4 nm SE from KRNP)
TAF Summary (Translated TAF)
KFNT
(17.4 nm SE from KRNP)
211120Z 2112/2212 26007KT P6SM SCT028 FM211800 23008KT P6SM SKC FM220200 19006KT P6SM BKN150 FM220900 20006KT P6SM SCT025 OVC050 PROB30 2210/2212 6SM -FZRAPL OVC025
  Airport Weather Conditions for KRNP

 Current Weather at RNP
21° F
Fair
Southwest winds at 5.8 mph
RNP NOAA Radar

Pressure: 30.44 in
Humidity: 65%
Wind: Southwest at 5.8 MPH (5 KT)
Dew Point: 11.3°F
Visibility: 10.00 mi


Airport Weather Forecast for KRNP

Translated METAR and TAF for KRNP
Translated METAR for KRNP (1623 UTC 21 November 2014)
found at http://aviationweather.gov/adds/metars/
 
METAR text: KRNP 211614Z AUTO 25007KT 10SM CLR M05/M11 A3045 RMK AO2 T10551113
Conditions at: KRNP (OWOSSO , MI, US) observed 1614 UTC 21 November 2014
Temperature: -5.5°C (22°F)
Dewpoint: -11.3°C (12°F) [RH = 64%]
Pressure (altimeter): 30.45 inches Hg (1031.2 mb)
Winds: from the WSW (250 degrees) at 8 MPH (7 knots; 3.6 m/s)
Visibility: 10 or more miles (16+ km)
Ceiling: at least 12,000 feet AGL
Clouds: sky clear below 12,000 feet AGL
Weather: automated observation with no human augmentation;
there may or may not be significant weather present at this time
Translated TAF for KRNP

There is no translated TAF available for this airport

Find All Airport Services Find A Hotel Find A Rental Car Find A Golf Course Find A Restaurant $100 Hamburger



FBO's on the Field
FBO Company Facility Photos Services Transportation Aviation Fuel Prices: Prices include tax
Catering Weather Repair Courtesy Rental Type 100LL JetA JetA+ MOGAS 8087
 
Owosso Community Airport

This FBO has not yet been rated
FS:Avfuel
Last Updated: Nov-12
Login to update fuel prices
SS:
Contact Owosso Community AirportMore FBO Information
 
Add another FBO Facility Photos Catering Weather Repair Courtesy Rental Type 100LL JetA JetA+ MOGAS 8087
Services Transportation Aviation Fuel Prices: Prices include tax


model-print
model-print
model-print
model-print